Pacific Treasures — V7FM9 — position and weather

sailwx.info

Track history (hours):
 
Tides and Currents Weather Stations Pressure Air Temp Water Temp Dewpoint Dewpoint Depression Visibility Wind Speed Wind Dir Waves Ship Positions

Pacific Treasures

Last reported at 2018-Jun-21 03:22 UTC. Time now 2018-Jun-24 01:34 UTC.
Position N 52°44' E 002°41'.

Length 256 m; draft 8.5 m.

Type: Tanker. MMSI: 538006773.

Date/timePositionNaut miles runAvg speedWind from/ knotsBaromVisibWave heightAir tempDewpointWater temp
2018-Jun-21 03:22N 52°44' E 002°41'2 5.5
2018-Jun-21 02:57N 52°42' E 002°42'3 6.0
2018-Jun-21 02:29N 52°39' E 002°42'28 5.7
2018-Jun-20 21:29N 52°16' E 003°10'3 7.1
2018-Jun-20 21:00N 52°15' E 003°16'3 6.1
2018-Jun-20 20:30N 52°14' E 003°20'3 6.7
2018-Jun-20 19:59N 52°13' E 003°26'3 6.5
2018-Jun-20 19:29N 52°12' E 003°31'4 7.5
2018-Jun-20 19:00N 52°11' E 003°36'3 5.4
2018-Jun-20 18:30N 52°11' E 003°41'0 0.3
2018-Jun-20 17:57N 52°11' E 003°41'0 0.1
2018-Jun-20 17:30N 52°11' E 003°41'0 0.0
2018-Jun-20 17:00N 52°11' E 003°41'0 0.0
2018-Jun-20 16:30N 52°11' E 003°41'0 0.1
2018-Jun-20 16:00N 52°11' E 003°41'0 0.0
2018-Jun-20 15:30N 52°11' E 003°41'0 0.1
2018-Jun-20 14:57N 52°11' E 003°41'0 0.0
2018-Jun-20 14:30N 52°11' E 003°41'0 0.0
2018-Jun-20 14:00N 52°11' E 003°41'0 0.0
2018-Jun-20 13:30N 52°11' E 003°41'0 0.1
2018-Jun-20 12:57N 52°11' E 003°41'0 0.1
2018-Jun-20 12:30N 52°11' E 003°41'0 0.0
2018-Jun-20 11:57N 52°11' E 003°41'0 0.1
2018-Jun-20 11:27N 52°11' E 003°41'0 0.0
2018-Jun-20 11:00N 52°11' E 003°41'0 0.1
2018-Jun-20 10:30N 52°11' E 003°41'0 0.1
2018-Jun-20 10:00N 52°11' E 003°41'0 0.1
2018-Jun-20 09:30N 52°11' E 003°41'0 0.0
2018-Jun-20 09:00N 52°11' E 003°41'0 0.0
2018-Jun-20 08:30N 52°11' E 003°41'0 0.0
2018-Jun-20 08:00N 52°11' E 003°41'0 0.0
2018-Jun-20 07:30N 52°11' E 003°41'0 0.0
2018-Jun-20 07:00N 52°11' E 003°41'0 0.0
2018-Jun-20 06:30N 52°11' E 003°41'0 0.0
2018-Jun-20 06:00N 52°11' E 003°41'0 0.6
2018-Jun-20 05:30N 52°11' E 003°40'2 3.6
2018-Jun-20 05:00N 52°11' E 003°37'4 7.8
2018-Jun-20 04:30N 52°07' E 003°37'510.0
2018-Jun-20 04:00N 52°05' E 003°45'510.3
2018-Jun-20 03:30N 52°03' E 003°53'4 7.5
2018-Jun-20 03:00N 52°01' E 003°58'510.4
2018-Jun-20 02:30N 51°59' E 004°05'2 4.4
2018-Jun-20 02:00N 51°58' E 004°02'1 2.7
2018-Jun-20 01:28N 51°58' E 003°59'0 0.0
2018-Jun-20 00:55N 51°58' E 003°59'0 0.0
2018-Jun-20 00:28N 51°58' E 003°59'0 0.0
2018-Jun-19 23:58N 51°58' E 003°59'0 0.0
2018-Jun-19 23:28N 51°58' E 003°59'0 0.0
2018-Jun-19 22:58N 51°58' E 003°59'0 0.0
2018-Jun-19 22:28N 51°58' E 003°59'0 0.0
2018-Jun-19 21:58N 51°58' E 003°59'0 0.0
2018-Jun-19 21:28N 51°58' E 003°59'0 0.0
2018-Jun-19 20:58N 51°58' E 003°59'0 0.0
2018-Jun-19 20:28N 51°58' E 003°59'0 0.0
2018-Jun-19 19:58N 51°58' E 003°59'0 0.0
2018-Jun-19 19:28N 51°58' E 003°59'0 0.0
2018-Jun-19 18:55N 51°58' E 003°59'0 0.0
2018-Jun-19 18:28N 51°58' E 003°59'0 0.0
2018-Jun-19 17:55N 51°58' E 003°59'0 0.0
2018-Jun-19 17:28N 51°58' E 003°59'0 0.0
2018-Jun-19 16:55N 51°58' E 003°59'0 0.0
2018-Jun-19 16:25N 51°58' E 003°59'0 0.0
2018-Jun-19 15:58N 51°58' E 003°59'0 0.0
2018-Jun-19 15:28N 51°58' E 003°59'0 0.0
2018-Jun-19 14:58N 51°58' E 003°59'0 0.0
2018-Jun-19 14:28N 51°58' E 003°59'0 0.0
2018-Jun-19 13:58N 51°58' E 003°59'0 0.0
2018-Jun-19 13:25N 51°58' E 003°59'0 0.0
2018-Jun-19 12:58N 51°58' E 003°59'0 0.0
2018-Jun-19 12:28N 51°58' E 003°59'0 0.0
2018-Jun-19 11:55N 51°58' E 003°59'0 0.0
2018-Jun-19 11:28N 51°58' E 003°59'0 0.0
2018-Jun-19 10:58N 51°58' E 003°59'0 0.0
2018-Jun-19 10:28N 51°58' E 003°59'0 0.0
2018-Jun-19 09:55N 51°58' E 003°59'0 0.0
2018-Jun-19 09:28N 51°58' E 003°59'0 0.0
2018-Jun-19 08:58N 51°58' E 003°59'0 0.0
2018-Jun-19 08:28N 51°58' E 003°59'0 0.0
2018-Jun-19 07:58N 51°58' E 003°59'0 0.0
2018-Jun-19 07:28N 51°58' E 003°59'0 0.0
2018-Jun-19 06:58N 51°58' E 003°59'0 0.0
2018-Jun-19 06:28N 51°58' E 003°59'0 0.0
2018-Jun-19 05:58N 51°58' E 003°59'0 0.0
2018-Jun-19 05:28N 51°58' E 003°59'0 0.0
2018-Jun-19 04:58N 51°58' E 003°59'0 0.0
2018-Jun-19 04:28N 51°58' E 003°59'0 0.0
2018-Jun-19 03:58N 51°58' E 003°59'0 0.0
2018-Jun-19 03:28N 51°58' E 003°59'0 0.0
2018-Jun-19 02:58N 51°58' E 003°59'0 0.0
2018-Jun-19 02:28N 51°58' E 003°59'0 0.0
2018-Jun-19 01:58N 51°58' E 003°59'0 0.0
2018-Jun-19 01:28N 51°58' E 003°59'0 0.0
2018-Jun-19 00:58N 51°58' E 003°59'0 0.0
2018-Jun-19 00:28N 51°58' E 003°59'0 0.0
2018-Jun-19 00:00N 51°58' E 003°59'1 1.1
2018-Jun-18 23:30N 51°59' E 004°00'3 5.8
2018-Jun-18 23:00N 51°58' E 004°05'2 4.2
2018-Jun-18 22:31N 51°58' E 004°08'3 6.1
2018-Jun-18 22:00N 51°56' E 004°12'1 1.4
2018-Jun-18 21:24N 51°55' E 004°13'0 0.0
2018-Jun-18 21:00N 51°55' E 004°13'0 0.0
2018-Jun-18 20:30N 51°55' E 004°13'0 0.0
2018-Jun-18 20:00N 51°55' E 004°13'0 0.0
2018-Jun-18 19:27N 51°55' E 004°13'0 0.0
2018-Jun-18 19:00N 51°55' E 004°13'0 0.0
2018-Jun-18 18:30N 51°55' E 004°13'0 0.0
2018-Jun-18 18:00N 51°55' E 004°13'0 0.0
2018-Jun-18 17:30N 51°55' E 004°13'0 0.0
2018-Jun-18 16:57N 51°55' E 004°13'0 0.0
2018-Jun-18 16:27N 51°55' E 004°13'0 0.0
2018-Jun-18 16:00N 51°55' E 004°13'0 0.0
2018-Jun-18 15:30N 51°55' E 004°13'0 0.0
2018-Jun-18 14:48N 51°55' E 004°13'0 0.0
2018-Jun-18 14:30N 51°55' E 004°13'0 0.0
2018-Jun-18 13:57N 51°55' E 004°13'0 0.0
2018-Jun-18 13:30N 51°55' E 004°13'0 0.0
2018-Jun-18 13:00N 51°55' E 004°13'0 0.0
2018-Jun-18 12:30N 51°55' E 004°13'0 0.0
2018-Jun-18 12:00N 51°55' E 004°13'0 0.0
2018-Jun-18 11:24N 51°55' E 004°13'0 0.0
2018-Jun-18 11:00N 51°55' E 004°13'0 0.0
2018-Jun-18 10:30N 51°55' E 004°13'0 0.0
2018-Jun-18 09:57N 51°55' E 004°13'0 0.0
2018-Jun-18 09:30N 51°55' E 004°13'0 0.0
2018-Jun-18 09:00N 51°55' E 004°13'0 0.0
2018-Jun-18 08:30N 51°55' E 004°13'0 0.0
2018-Jun-18 07:54N 51°55' E 004°13'0 0.0
2018-Jun-18 07:30N 51°55' E 004°13'0 0.0
2018-Jun-18 07:00N 51°55' E 004°13'0 0.0
2018-Jun-18 06:30N 51°55' E 004°13'0 0.0
2018-Jun-18 06:00N 51°55' E 004°13'0 0.0
2018-Jun-18 05:30N 51°55' E 004°13'0 0.0
2018-Jun-18 05:00N 51°55' E 004°13'0 0.0
2018-Jun-18 04:27N 51°55' E 004°13'0 0.0
2018-Jun-18 03:57N 51°55' E 004°13'0 0.0
2018-Jun-18 03:30N 51°55' E 004°13'0 0.0
2018-Jun-18 03:00N 51°55' E 004°13'0 0.0
2018-Jun-18 02:27N 51°55' E 004°13'0 0.0
2018-Jun-18 02:00N 51°55' E 004°13'0 0.0
2018-Jun-18 01:27N 51°55' E 004°13'0 0.0
2018-Jun-18 01:00N 51°55' E 004°13'0 0.0
2018-Jun-18 00:30N 51°55' E 004°13'0 0.0
2018-Jun-18 00:00N 51°55' E 004°13'0 0.0
2018-Jun-17 23:30N 51°55' E 004°13'0 0.0
2018-Jun-17 23:00N 51°55' E 004°13'0 0.0
2018-Jun-17 22:30N 51°55' E 004°13'0 0.0
2018-Jun-17 22:00N 51°55' E 004°13'0 0.0
2018-Jun-17 21:27N 51°55' E 004°13'0 0.0
2018-Jun-17 21:00N 51°55' E 004°13'0 0.0
2018-Jun-17 20:30N 51°55' E 004°13'0 0.0
2018-Jun-17 20:00N 51°55' E 004°13'0 0.0
2018-Jun-17 19:30N 51°55' E 004°13'0 0.0
2018-Jun-17 19:00N 51°55' E 004°13'0 0.0
2018-Jun-17 18:30N 51°55' E 004°13'0 0.0
2018-Jun-17 18:00N 51°55' E 004°13'0 0.0
2018-Jun-17 17:27N 51°55' E 004°13'0 0.0
2018-Jun-17 16:54N 51°55' E 004°13'0 0.0
2018-Jun-17 16:30N 51°55' E 004°13'0 0.0
2018-Jun-17 15:57N 51°55' E 004°13'0 0.0
2018-Jun-17 15:30N 51°55' E 004°13'0 0.0
2018-Jun-17 15:00N 51°55' E 004°13'0 0.0
2018-Jun-17 14:15N 51°55' E 004°13'0 0.0
2018-Jun-17 14:00N 51°55' E 004°13'0 0.0
2018-Jun-17 13:30N 51°55' E 004°13'0 0.0
2018-Jun-17 12:57N 51°55' E 004°13'0 0.0
2018-Jun-17 12:30N 51°55' E 004°13'0 0.0
2018-Jun-17 12:00N 51°55' E 004°13'0 0.0
2018-Jun-17 11:30N 51°55' E 004°13'0 0.0
2018-Jun-17 10:48N 51°55' E 004°13'0 0.0
2018-Jun-17 10:27N 51°55' E 004°13'0 0.0
2018-Jun-17 10:00N 51°55' E 004°13'0 0.0
2018-Jun-17 09:30N 51°55' E 004°13'0 0.0
2018-Jun-17 08:48N 51°55' E 004°13'0 0.0
2018-Jun-17 08:27N 51°55' E 004°13'0 0.0
2018-Jun-17 07:57N 51°55' E 004°13'0 0.0
2018-Jun-17 07:30N 51°55' E 004°13'0 0.0
2018-Jun-17 07:00N 51°55' E 004°13'0 0.0
2018-Jun-17 06:30N 51°55' E 004°13'0 0.0
2018-Jun-17 06:00N 51°55' E 004°13'0 0.0
2018-Jun-17 05:30N 51°55' E 004°13'0 0.0
2018-Jun-17 04:57N 51°55' E 004°13'0 0.0
2018-Jun-17 04:21N 51°55' E 004°13'0 0.0
2018-Jun-17 04:00N 51°55' E 004°13'0 0.0
2018-Jun-17 03:27N 51°55' E 004°13'0 0.0
2018-Jun-17 03:00N 51°55' E 004°13'0 0.0
2018-Jun-17 02:30N 51°55' E 004°13'0 0.0
2018-Jun-17 02:00N 51°55' E 004°13'0 0.0
2018-Jun-17 01:30N 51°55' E 004°13'0 0.0
2018-Jun-17 00:57N 51°55' E 004°13'0 0.0
2018-Jun-17 00:30N 51°55' E 004°13'0 0.0
2018-Jun-17 00:00N 51°55' E 004°13'0 0.0
2018-Jun-16 23:30N 51°55' E 004°13'0 0.0
2018-Jun-16 23:00N 51°55' E 004°13'0 0.0
2018-Jun-16 22:30N 51°55' E 004°13'0 0.0
2018-Jun-16 22:00N 51°55' E 004°13'0 0.0
2018-Jun-16 21:30N 51°55' E 004°13'0 0.0
2018-Jun-16 21:00N 51°55' E 004°13'0 0.0
2018-Jun-16 20:30N 51°55' E 004°13'0 0.0
2018-Jun-16 20:00N 51°55' E 004°13'0 0.0
2018-Jun-16 19:24N 51°55' E 004°13'0 0.0
2018-Jun-16 19:00N 51°55' E 004°13'0 0.0
2018-Jun-16 18:30N 51°55' E 004°13'0 0.0
2018-Jun-16 17:57N 51°55' E 004°13'0 0.0
2018-Jun-16 17:30N 51°55' E 004°13'0 0.0
2018-Jun-16 16:57N 51°55' E 004°13'0 0.0
2018-Jun-16 16:27N 51°55' E 004°13'0 0.0
2018-Jun-16 16:00N 51°55' E 004°13'0 0.0
2018-Jun-16 15:30N 51°55' E 004°13'0 0.0
2018-Jun-16 14:57N 51°55' E 004°13'0 0.0
2018-Jun-16 14:30N 51°55' E 004°13'0 0.0
2018-Jun-16 13:57N 51°55' E 004°13'0 0.0
2018-Jun-16 13:30N 51°55' E 004°13'0 0.0
2018-Jun-16 13:00N 51°55' E 004°13'0 0.0
2018-Jun-16 12:27N 51°55' E 004°13'0 0.0
2018-Jun-16 12:00N 51°55' E 004°13'0 0.0
2018-Jun-16 11:27N 51°55' E 004°13'0 0.0
2018-Jun-16 11:00N 51°55' E 004°13'0 0.0
2018-Jun-16 10:30N 51°55' E 004°13'0 0.0
2018-Jun-16 10:00N 51°55' E 004°13'0 0.0
2018-Jun-16 09:30N 51°55' E 004°13'0 0.0
2018-Jun-16 08:51N 51°55' E 004°13'0 0.0
2018-Jun-16 08:27N 51°55' E 004°13'0 0.0
2018-Jun-16 08:00N 51°55' E 004°13'0 0.0
2018-Jun-16 07:30N 51°55' E 004°13'0 0.0
2018-Jun-16 07:00N 51°55' E 004°13'0 0.0
2018-Jun-16 06:30N 51°55' E 004°13'0 0.0
2018-Jun-16 06:00N 51°55' E 004°13'0 0.0
2018-Jun-16 05:30N 51°55' E 004°13'0 0.0
2018-Jun-16 04:57N 51°55' E 004°13'0 0.6
2018-Jun-16 04:30N 51°55' E 004°13'2 4.5
2018-Jun-16 04:00N 51°57' E 004°10'3 5.6
2018-Jun-16 03:30N 51°58' E 004°06'5 9.6
2018-Jun-16 03:00N 52°00' E 003°59'4 7.8
2018-Jun-16 02:30N 52°01' E 003°53'1 2.9
2018-Jun-16 02:00N 52°01' E 003°50'3 5.5
2018-Jun-16 01:30N 51°59' E 003°47'4 7.1
2018-Jun-16 01:00N 51°58' E 003°41'4 7.2
2018-Jun-16 00:30N 51°57' E 003°36'2 4.4
2018-Jun-16 00:00N 51°55' E 003°34'0 0.8
2018-Jun-15 23:30N 51°54' E 003°34'0 0.1
2018-Jun-15 23:00N 51°54' E 003°34'0 0.0
2018-Jun-15 22:30N 51°54' E 003°34'0 0.0
2018-Jun-15 22:00N 51°54' E 003°34'0 0.0
2018-Jun-15 21:30N 51°54' E 003°34'0 0.0
2018-Jun-15 21:00N 51°54' E 003°34'0 0.1
2018-Jun-15 20:27N 51°54' E 003°34'0 0.0
2018-Jun-15 20:00N 51°54' E 003°34'0 0.5
2018-Jun-15 19:30N 51°54' E 003°34'1 2.9
2018-Jun-15 19:00N 51°55' E 003°33'4 8.0
2018-Jun-15 18:30N 51°55' E 003°26'4 8.2
2018-Jun-15 18:00N 51°54' E 003°20'5 9.8
2018-Jun-15 17:30N 51°54' E 003°12'612.2
2018-Jun-15 17:00N 51°53' E 003°02'612.7
2018-Jun-15 16:30N 51°53' E 002°52'611.6
2018-Jun-15 16:00N 51°54' E 002°42'510.7
2018-Jun-15 15:30N 51°59' E 002°41'510.5
2018-Jun-15 15:00N 52°05' E 002°41'510.5
2018-Jun-15 14:30N 52°10' E 002°42'510.7
2018-Jun-15 14:00N 52°15' E 002°44'611.4
2018-Jun-15 13:30N 52°20' E 002°49'612.1
2018-Jun-15 13:00N 52°26' E 002°53'612.7
2018-Jun-15 12:30N 52°31' E 002°57'713.2
2018-Jun-15 12:00N 52°37' E 003°02'713.4
2018-Jun-15 11:30N 52°44' E 003°07'713.6
2018-Jun-15 11:00N 52°50' E 003°11'1013.7
2018-Jun-15 10:17N 52°59' E 003°17'38310.5
2018-Jun-13 21:50N 57°51' E 010°35'3 9.5
2018-Jun-13 21:30N 57°50' E 010°41'6 9.6
2018-Jun-13 20:55N 57°47' E 010°50'511.4
2018-Jun-13 20:30N 57°44' E 010°56'611.8
2018-Jun-13 19:59N 57°40' E 011°05'611.7
2018-Jun-13 19:29N 57°36' E 011°13'611.4
2018-Jun-13 19:00N 57°32' E 011°21'611.5
2018-Jun-13 18:30N 57°28' E 011°27'611.3
2018-Jun-13 18:00N 57°22' E 011°30'611.2
2018-Jun-13 17:30N 57°17' E 011°33'611.3
2018-Jun-13 16:59N 57°12' E 011°37'3710.3
2018-Jun-13 13:25N 56°35' E 011°43'80 9.4
2018-Jun-13 04:55N 55°18' E 011°03'410.2
2018-Jun-13 04:30N 55°14' E 011°06'5 9.2
2018-Jun-13 03:58N 55°10' E 011°01'510.1
2018-Jun-13 03:25N 55°05' E 010°60'410.0
2018-Jun-13 03:00N 55°00' E 010°59'5 9.5
2018-Jun-13 02:30N 54°57' E 010°54'5 9.7
2018-Jun-13 02:00N 54°52' E 010°50'4 7.6
2018-Jun-13 01:30N 54°49' E 010°50'5 9.6
2018-Jun-13 01:00N 54°44' E 010°47'5 9.3
2018-Jun-13 00:30N 54°40' E 010°49'5 9.3
2018-Jun-13 00:00N 54°37' E 010°56'5 9.3
2018-Jun-12 23:30N 54°36' E 011°04'5 9.4
2018-Jun-12 23:00N 54°36' E 011°12'510.6
2018-Jun-12 22:30N 54°33' E 011°20'510.3
2018-Jun-12 22:00N 54°31' E 011°28'5 9.3
2018-Jun-12 21:30N 54°29' E 011°36'510.3
2018-Jun-12 21:00N 54°27' E 011°44'610.7
2018-Jun-12 20:29N 54°26' E 011°53'510.4
2018-Jun-12 19:59N 54°26' E 012°02'5 9.4
2018-Jun-12 19:30N 54°27' E 012°10'4 8.8
2018-Jun-12 19:00N 54°30' E 012°13'5 9.3
2018-Jun-12 18:30N 54°35' E 012°16'4 7.8
2018-Jun-12 18:00N 54°38' E 012°20'6311.4
2018-Jun-12 12:28N 55°03' E 014°01'511.8
2018-Jun-12 12:00N 55°07' E 014°08'612.1
2018-Jun-12 11:30N 55°11' E 014°15'612.2
2018-Jun-12 11:00N 55°16' E 014°22'612.3
2018-Jun-12 10:30N 55°21' E 014°28'612.2
2018-Jun-12 10:00N 55°25' E 014°35'612.4
2018-Jun-12 09:30N 55°28' E 014°45'612.3
2018-Jun-12 09:00N 55°31' E 014°55'612.2
2018-Jun-12 08:30N 55°33' E 015°05'612.5
2018-Jun-12 08:00N 55°36' E 015°15'612.6
2018-Jun-12 07:30N 55°38' E 015°25'612.2
2018-Jun-12 06:59N 55°40' E 015°36'27011.3
2018-Jun-11 07:05N 58°56' E 021°20'112.1
2018-Jun-11 07:00N 58°56' E 021°21'612.0
2018-Jun-11 06:30N 59°01' E 021°27'612.0
2018-Jun-11 06:00N 59°07' E 021°33'611.8
2018-Jun-11 05:30N 59°11' E 021°41'612.0
2018-Jun-11 05:00N 59°14' E 021°50'612.0
2018-Jun-11 04:30N 59°18' E 021°60'611.8
2018-Jun-11 04:00N 59°22' E 022°09'611.6
2018-Jun-11 03:30N 59°25' E 022°18'  
Track history (hours):
 
Tides and Currents Weather Stations Pressure Air Temp Water Temp Dewpoint Dewpoint Depression Visibility Wind Speed Wind Dir Waves Ship Positions

Pacific Treasures

Last reported at 2018-Jun-21 03:22 UTC. Time now 2018-Jun-24 01:34 UTC.
Position N 52°44' E 002°41'.

Length 256 m; draft 8.5 m.

Type: Tanker. MMSI: 538006773.

Date/timePositionNaut miles runAvg speedWind from/ knotsBaromVisibWave heightAir tempDewpointWater temp
2018-Jun-21 03:22N 52°44' E 002°41'2 5.5
2018-Jun-21 02:57N 52°42' E 002°42'3 6.0
2018-Jun-21 02:29N 52°39' E 002°42'28 5.7
2018-Jun-20 21:29N 52°16' E 003°10'3 7.1
2018-Jun-20 21:00N 52°15' E 003°16'3 6.1
2018-Jun-20 20:30N 52°14' E 003°20'3 6.7
2018-Jun-20 19:59N 52°13' E 003°26'3 6.5
2018-Jun-20 19:29N 52°12' E 003°31'4 7.5
2018-Jun-20 19:00N 52°11' E 003°36'3 5.4
2018-Jun-20 18:30N 52°11' E 003°41'0 0.3
2018-Jun-20 17:57N 52°11' E 003°41'0 0.1
2018-Jun-20 17:30N 52°11' E 003°41'0 0.0
2018-Jun-20 17:00N 52°11' E 003°41'0 0.0
2018-Jun-20 16:30N 52°11' E 003°41'0 0.1
2018-Jun-20 16:00N 52°11' E 003°41'0 0.0
2018-Jun-20 15:30N 52°11' E 003°41'0 0.1
2018-Jun-20 14:57N 52°11' E 003°41'0 0.0
2018-Jun-20 14:30N 52°11' E 003°41'0 0.0
2018-Jun-20 14:00N 52°11' E 003°41'0 0.0
2018-Jun-20 13:30N 52°11' E 003°41'0 0.1
2018-Jun-20 12:57N 52°11' E 003°41'0 0.1
2018-Jun-20 12:30N 52°11' E 003°41'0 0.0
2018-Jun-20 11:57N 52°11' E 003°41'0 0.1
2018-Jun-20 11:27N 52°11' E 003°41'0 0.0
2018-Jun-20 11:00N 52°11' E 003°41'0 0.1
2018-Jun-20 10:30N 52°11' E 003°41'0 0.1
2018-Jun-20 10:00N 52°11' E 003°41'0 0.1
2018-Jun-20 09:30N 52°11' E 003°41'0 0.0
2018-Jun-20 09:00N 52°11' E 003°41'0 0.0
2018-Jun-20 08:30N 52°11' E 003°41'0 0.0
2018-Jun-20 08:00N 52°11' E 003°41'0 0.0
2018-Jun-20 07:30N 52°11' E 003°41'0 0.0
2018-Jun-20 07:00N 52°11' E 003°41'0 0.0
2018-Jun-20 06:30N 52°11' E 003°41'0 0.0
2018-Jun-20 06:00N 52°11' E 003°41'0 0.6
2018-Jun-20 05:30N 52°11' E 003°40'2 3.6
2018-Jun-20 05:00N 52°11' E 003°37'4 7.8
2018-Jun-20 04:30N 52°07' E 003°37'510.0
2018-Jun-20 04:00N 52°05' E 003°45'510.3
2018-Jun-20 03:30N 52°03' E 003°53'4 7.5
2018-Jun-20 03:00N 52°01' E 003°58'510.4
2018-Jun-20 02:30N 51°59' E 004°05'2 4.4
2018-Jun-20 02:00N 51°58' E 004°02'1 2.7
2018-Jun-20 01:28N 51°58' E 003°59'0 0.0
2018-Jun-20 00:55N 51°58' E 003°59'0 0.0
2018-Jun-20 00:28N 51°58' E 003°59'0 0.0
2018-Jun-19 23:58N 51°58' E 003°59'0 0.0
2018-Jun-19 23:28N 51°58' E 003°59'0 0.0
2018-Jun-19 22:58N 51°58' E 003°59'0 0.0
2018-Jun-19 22:28N 51°58' E 003°59'0 0.0
2018-Jun-19 21:58N 51°58' E 003°59'0 0.0
2018-Jun-19 21:28N 51°58' E 003°59'0 0.0
2018-Jun-19 20:58N 51°58' E 003°59'0 0.0
2018-Jun-19 20:28N 51°58' E 003°59'0 0.0
2018-Jun-19 19:58N 51°58' E 003°59'0 0.0
2018-Jun-19 19:28N 51°58' E 003°59'0 0.0
2018-Jun-19 18:55N 51°58' E 003°59'0 0.0
2018-Jun-19 18:28N 51°58' E 003°59'0 0.0
2018-Jun-19 17:55N 51°58' E 003°59'0 0.0
2018-Jun-19 17:28N 51°58' E 003°59'0 0.0
2018-Jun-19 16:55N 51°58' E 003°59'0 0.0
2018-Jun-19 16:25N 51°58' E 003°59'0 0.0
2018-Jun-19 15:58N 51°58' E 003°59'0 0.0
2018-Jun-19 15:28N 51°58' E 003°59'0 0.0
2018-Jun-19 14:58N 51°58' E 003°59'0 0.0
2018-Jun-19 14:28N 51°58' E 003°59'0 0.0
2018-Jun-19 13:58N 51°58' E 003°59'0 0.0
2018-Jun-19 13:25N 51°58' E 003°59'0 0.0
2018-Jun-19 12:58N 51°58' E 003°59'0 0.0
2018-Jun-19 12:28N 51°58' E 003°59'0 0.0
2018-Jun-19 11:55N 51°58' E 003°59'0 0.0
2018-Jun-19 11:28N 51°58' E 003°59'0 0.0
2018-Jun-19 10:58N 51°58' E 003°59'0 0.0
2018-Jun-19 10:28N 51°58' E 003°59'0 0.0
2018-Jun-19 09:55N 51°58' E 003°59'0 0.0
2018-Jun-19 09:28N 51°58' E 003°59'0 0.0
2018-Jun-19 08:58N 51°58' E 003°59'0 0.0
2018-Jun-19 08:28N 51°58' E 003°59'0 0.0
2018-Jun-19 07:58N 51°58' E 003°59'0 0.0
2018-Jun-19 07:28N 51°58' E 003°59'0 0.0
2018-Jun-19 06:58N 51°58' E 003°59'0 0.0
2018-Jun-19 06:28N 51°58' E 003°59'0 0.0
2018-Jun-19 05:58N 51°58' E 003°59'0 0.0
2018-Jun-19 05:28N 51°58' E 003°59'0 0.0
2018-Jun-19 04:58N 51°58' E 003°59'0 0.0
2018-Jun-19 04:28N 51°58' E 003°59'0 0.0
2018-Jun-19 03:58N 51°58' E 003°59'0 0.0
2018-Jun-19 03:28N 51°58' E 003°59'0 0.0
2018-Jun-19 02:58N 51°58' E 003°59'0 0.0
2018-Jun-19 02:28N 51°58' E 003°59'0 0.0
2018-Jun-19 01:58N 51°58' E 003°59'0 0.0
2018-Jun-19 01:28N 51°58' E 003°59'0 0.0
2018-Jun-19 00:58N 51°58' E 003°59'0 0.0
2018-Jun-19 00:28N 51°58' E 003°59'0 0.0
2018-Jun-19 00:00N 51°58' E 003°59'1 1.1
2018-Jun-18 23:30N 51°59' E 004°00'3 5.8
2018-Jun-18 23:00N 51°58' E 004°05'2 4.2
2018-Jun-18 22:31N 51°58' E 004°08'3 6.1
2018-Jun-18 22:00N 51°56' E 004°12'1 1.4
2018-Jun-18 21:24N 51°55' E 004°13'0 0.0
2018-Jun-18 21:00N 51°55' E 004°13'0 0.0
2018-Jun-18 20:30N 51°55' E 004°13'0 0.0
2018-Jun-18 20:00N 51°55' E 004°13'0 0.0
2018-Jun-18 19:27N 51°55' E 004°13'0 0.0
2018-Jun-18 19:00N 51°55' E 004°13'0 0.0
2018-Jun-18 18:30N 51°55' E 004°13'0 0.0
2018-Jun-18 18:00N 51°55' E 004°13'0 0.0
2018-Jun-18 17:30N 51°55' E 004°13'0 0.0
2018-Jun-18 16:57N 51°55' E 004°13'0 0.0
2018-Jun-18 16:27N 51°55' E 004°13'0 0.0
2018-Jun-18 16:00N 51°55' E 004°13'0 0.0
2018-Jun-18 15:30N 51°55' E 004°13'0 0.0
2018-Jun-18 14:48N 51°55' E 004°13'0 0.0
2018-Jun-18 14:30N 51°55' E 004°13'0 0.0
2018-Jun-18 13:57N 51°55' E 004°13'0 0.0
2018-Jun-18 13:30N 51°55' E 004°13'0 0.0
2018-Jun-18 13:00N 51°55' E 004°13'0 0.0
2018-Jun-18 12:30N 51°55' E 004°13'0 0.0
2018-Jun-18 12:00N 51°55' E 004°13'0 0.0
2018-Jun-18 11:24N 51°55' E 004°13'0 0.0
2018-Jun-18 11:00N 51°55' E 004°13'0 0.0
2018-Jun-18 10:30N 51°55' E 004°13'0 0.0
2018-Jun-18 09:57N 51°55' E 004°13'0 0.0
2018-Jun-18 09:30N 51°55' E 004°13'0 0.0
2018-Jun-18 09:00N 51°55' E 004°13'0 0.0
2018-Jun-18 08:30N 51°55' E 004°13'0 0.0
2018-Jun-18 07:54N 51°55' E 004°13'0 0.0
2018-Jun-18 07:30N 51°55' E 004°13'0 0.0
2018-Jun-18 07:00N 51°55' E 004°13'0 0.0
2018-Jun-18 06:30N 51°55' E 004°13'0 0.0
2018-Jun-18 06:00N 51°55' E 004°13'0 0.0
2018-Jun-18 05:30N 51°55' E 004°13'0 0.0
2018-Jun-18 05:00N 51°55' E 004°13'0 0.0
2018-Jun-18 04:27N 51°55' E 004°13'0 0.0
2018-Jun-18 03:57N 51°55' E 004°13'0 0.0
2018-Jun-18 03:30N 51°55' E 004°13'0 0.0
2018-Jun-18 03:00N 51°55' E 004°13'0 0.0
2018-Jun-18 02:27N 51°55' E 004°13'0 0.0
2018-Jun-18 02:00N 51°55' E 004°13'0 0.0
2018-Jun-18 01:27N 51°55' E 004°13'0 0.0
2018-Jun-18 01:00N 51°55' E 004°13'0 0.0
2018-Jun-18 00:30N 51°55' E 004°13'0 0.0
2018-Jun-18 00:00N 51°55' E 004°13'0 0.0
2018-Jun-17 23:30N 51°55' E 004°13'0 0.0
2018-Jun-17 23:00N 51°55' E 004°13'0 0.0
2018-Jun-17 22:30N 51°55' E 004°13'0 0.0
2018-Jun-17 22:00N 51°55' E 004°13'0 0.0
2018-Jun-17 21:27N 51°55' E 004°13'0 0.0
2018-Jun-17 21:00N 51°55' E 004°13'0 0.0
2018-Jun-17 20:30N 51°55' E 004°13'0 0.0
2018-Jun-17 20:00N 51°55' E 004°13'0 0.0
2018-Jun-17 19:30N 51°55' E 004°13'0 0.0
2018-Jun-17 19:00N 51°55' E 004°13'0 0.0
2018-Jun-17 18:30N 51°55' E 004°13'0 0.0
2018-Jun-17 18:00N 51°55' E 004°13'0 0.0
2018-Jun-17 17:27N 51°55' E 004°13'0 0.0
2018-Jun-17 16:54N 51°55' E 004°13'0 0.0
2018-Jun-17 16:30N 51°55' E 004°13'0 0.0
2018-Jun-17 15:57N 51°55' E 004°13'0 0.0
2018-Jun-17 15:30N 51°55' E 004°13'0 0.0
2018-Jun-17 15:00N 51°55' E 004°13'0 0.0
2018-Jun-17 14:15N 51°55' E 004°13'0 0.0
2018-Jun-17 14:00N 51°55' E 004°13'0 0.0
2018-Jun-17 13:30N 51°55' E 004°13'0 0.0
2018-Jun-17 12:57N 51°55' E 004°13'0 0.0
2018-Jun-17 12:30N 51°55' E 004°13'0 0.0
2018-Jun-17 12:00N 51°55' E 004°13'0 0.0
2018-Jun-17 11:30N 51°55' E 004°13'0 0.0
2018-Jun-17 10:48N 51°55' E 004°13'0 0.0
2018-Jun-17 10:27N 51°55' E 004°13'0 0.0
2018-Jun-17 10:00N 51°55' E 004°13'0 0.0
2018-Jun-17 09:30N 51°55' E 004°13'0 0.0
2018-Jun-17 08:48N 51°55' E 004°13'0 0.0
2018-Jun-17 08:27N 51°55' E 004°13'0 0.0
2018-Jun-17 07:57N 51°55' E 004°13'0 0.0
2018-Jun-17 07:30N 51°55' E 004°13'0 0.0
2018-Jun-17 07:00N 51°55' E 004°13'0 0.0
2018-Jun-17 06:30N 51°55' E 004°13'0 0.0
2018-Jun-17 06:00N 51°55' E 004°13'0 0.0
2018-Jun-17 05:30N 51°55' E 004°13'0 0.0
2018-Jun-17 04:57N 51°55' E 004°13'0 0.0
2018-Jun-17 04:21N 51°55' E 004°13'0 0.0
2018-Jun-17 04:00N 51°55' E 004°13'0 0.0
2018-Jun-17 03:27N 51°55' E 004°13'0 0.0
2018-Jun-17 03:00N 51°55' E 004°13'0 0.0
2018-Jun-17 02:30N 51°55' E 004°13'0 0.0
2018-Jun-17 02:00N 51°55' E 004°13'0 0.0
2018-Jun-17 01:30N 51°55' E 004°13'0 0.0
2018-Jun-17 00:57N 51°55' E 004°13'0 0.0
2018-Jun-17 00:30N 51°55' E 004°13'0 0.0
2018-Jun-17 00:00N 51°55' E 004°13'0 0.0
2018-Jun-16 23:30N 51°55' E 004°13'0 0.0
2018-Jun-16 23:00N 51°55' E 004°13'0 0.0
2018-Jun-16 22:30N 51°55' E 004°13'0 0.0
2018-Jun-16 22:00N 51°55' E 004°13'0 0.0
2018-Jun-16 21:30N 51°55' E 004°13'0 0.0
2018-Jun-16 21:00N 51°55' E 004°13'0 0.0
2018-Jun-16 20:30N 51°55' E 004°13'0 0.0
2018-Jun-16 20:00N 51°55' E 004°13'0 0.0
2018-Jun-16 19:24N 51°55' E 004°13'0 0.0
2018-Jun-16 19:00N 51°55' E 004°13'0 0.0
2018-Jun-16 18:30N 51°55' E 004°13'0 0.0
2018-Jun-16 17:57N 51°55' E 004°13'0 0.0
2018-Jun-16 17:30N 51°55' E 004°13'0 0.0
2018-Jun-16 16:57N 51°55' E 004°13'0 0.0
2018-Jun-16 16:27N 51°55' E 004°13'0 0.0
2018-Jun-16 16:00N 51°55' E 004°13'0 0.0
2018-Jun-16 15:30N 51°55' E 004°13'0 0.0
2018-Jun-16 14:57N 51°55' E 004°13'0 0.0
2018-Jun-16 14:30N 51°55' E 004°13'0 0.0
2018-Jun-16 13:57N 51°55' E 004°13'0 0.0
2018-Jun-16 13:30N 51°55' E 004°13'0 0.0
2018-Jun-16 13:00N 51°55' E 004°13'0 0.0
2018-Jun-16 12:27N 51°55' E 004°13'0 0.0
2018-Jun-16 12:00N 51°55' E 004°13'0 0.0
2018-Jun-16 11:27N 51°55' E 004°13'0 0.0
2018-Jun-16 11:00N 51°55' E 004°13'0 0.0
2018-Jun-16 10:30N 51°55' E 004°13'0 0.0
2018-Jun-16 10:00N 51°55' E 004°13'0 0.0
2018-Jun-16 09:30N 51°55' E 004°13'0 0.0
2018-Jun-16 08:51N 51°55' E 004°13'0 0.0
2018-Jun-16 08:27N 51°55' E 004°13'0 0.0
2018-Jun-16 08:00N 51°55' E 004°13'0 0.0
2018-Jun-16 07:30N 51°55' E 004°13'0 0.0
2018-Jun-16 07:00N 51°55' E 004°13'0 0.0
2018-Jun-16 06:30N 51°55' E 004°13'0 0.0
2018-Jun-16 06:00N 51°55' E 004°13'0 0.0
2018-Jun-16 05:30N 51°55' E 004°13'0 0.0
2018-Jun-16 04:57N 51°55' E 004°13'0 0.6
2018-Jun-16 04:30N 51°55' E 004°13'2 4.5
2018-Jun-16 04:00N 51°57' E 004°10'3 5.6
2018-Jun-16 03:30N 51°58' E 004°06'5 9.6
2018-Jun-16 03:00N 52°00' E 003°59'4 7.8
2018-Jun-16 02:30N 52°01' E 003°53'1 2.9
2018-Jun-16 02:00N 52°01' E 003°50'3 5.5
2018-Jun-16 01:30N 51°59' E 003°47'4 7.1
2018-Jun-16 01:00N 51°58' E 003°41'4 7.2
2018-Jun-16 00:30N 51°57' E 003°36'2 4.4
2018-Jun-16 00:00N 51°55' E 003°34'0 0.8
2018-Jun-15 23:30N 51°54' E 003°34'0 0.1
2018-Jun-15 23:00N 51°54' E 003°34'0 0.0
2018-Jun-15 22:30N 51°54' E 003°34'0 0.0
2018-Jun-15 22:00N 51°54' E 003°34'0 0.0
2018-Jun-15 21:30N 51°54' E 003°34'0 0.0
2018-Jun-15 21:00N 51°54' E 003°34'0 0.1
2018-Jun-15 20:27N 51°54' E 003°34'0 0.0
2018-Jun-15 20:00N 51°54' E 003°34'0 0.5
2018-Jun-15 19:30N 51°54' E 003°34'1 2.9
2018-Jun-15 19:00N 51°55' E 003°33'4 8.0
2018-Jun-15 18:30N 51°55' E 003°26'4 8.2
2018-Jun-15 18:00N 51°54' E 003°20'5 9.8
2018-Jun-15 17:30N 51°54' E 003°12'612.2
2018-Jun-15 17:00N 51°53' E 003°02'612.7
2018-Jun-15 16:30N 51°53' E 002°52'611.6
2018-Jun-15 16:00N 51°54' E 002°42'510.7
2018-Jun-15 15:30N 51°59' E 002°41'510.5
2018-Jun-15 15:00N 52°05' E 002°41'510.5
2018-Jun-15 14:30N 52°10' E 002°42'510.7
2018-Jun-15 14:00N 52°15' E 002°44'611.4
2018-Jun-15 13:30N 52°20' E 002°49'612.1
2018-Jun-15 13:00N 52°26' E 002°53'612.7
2018-Jun-15 12:30N 52°31' E 002°57'713.2
2018-Jun-15 12:00N 52°37' E 003°02'713.4
2018-Jun-15 11:30N 52°44' E 003°07'713.6
2018-Jun-15 11:00N 52°50' E 003°11'1013.7
2018-Jun-15 10:17N 52°59' E 003°17'38310.5
2018-Jun-13 21:50N 57°51' E 010°35'3 9.5
2018-Jun-13 21:30N 57°50' E 010°41'6 9.6
2018-Jun-13 20:55N 57°47' E 010°50'511.4
2018-Jun-13 20:30N 57°44' E 010°56'611.8
2018-Jun-13 19:59N 57°40' E 011°05'611.7
2018-Jun-13 19:29N 57°36' E 011°13'611.4
2018-Jun-13 19:00N 57°32' E 011°21'611.5
2018-Jun-13 18:30N 57°28' E 011°27'611.3
2018-Jun-13 18:00N 57°22' E 011°30'611.2
2018-Jun-13 17:30N 57°17' E 011°33'611.3
2018-Jun-13 16:59N 57°12' E 011°37'3710.3
2018-Jun-13 13:25N 56°35' E 011°43'80 9.4
2018-Jun-13 04:55N 55°18' E 011°03'410.2
2018-Jun-13 04:30N 55°14' E 011°06'5 9.2
2018-Jun-13 03:58N 55°10' E 011°01'510.1
2018-Jun-13 03:25N 55°05' E 010°60'410.0
2018-Jun-13 03:00N 55°00' E 010°59'5 9.5
2018-Jun-13 02:30N 54°57' E 010°54'5 9.7
2018-Jun-13 02:00N 54°52' E 010°50'4 7.6
2018-Jun-13 01:30N 54°49' E 010°50'5 9.6
2018-Jun-13 01:00N 54°44' E 010°47'5 9.3
2018-Jun-13 00:30N 54°40' E 010°49'5 9.3
2018-Jun-13 00:00N 54°37' E 010°56'5 9.3
2018-Jun-12 23:30N 54°36' E 011°04'5 9.4
2018-Jun-12 23:00N 54°36' E 011°12'510.6
2018-Jun-12 22:30N 54°33' E 011°20'510.3
2018-Jun-12 22:00N 54°31' E 011°28'5 9.3
2018-Jun-12 21:30N 54°29' E 011°36'510.3
2018-Jun-12 21:00N 54°27' E 011°44'610.7
2018-Jun-12 20:29N 54°26' E 011°53'510.4
2018-Jun-12 19:59N 54°26' E 012°02'5 9.4
2018-Jun-12 19:30N 54°27' E 012°10'4 8.8
2018-Jun-12 19:00N 54°30' E 012°13'5 9.3
2018-Jun-12 18:30N 54°35' E 012°16'4 7.8
2018-Jun-12 18:00N 54°38' E 012°20'6311.4
2018-Jun-12 12:28N 55°03' E 014°01'511.8
2018-Jun-12 12:00N 55°07' E 014°08'612.1
2018-Jun-12 11:30N 55°11' E 014°15'612.2
2018-Jun-12 11:00N 55°16' E 014°22'612.3
2018-Jun-12 10:30N 55°21' E 014°28'612.2
2018-Jun-12 10:00N 55°25' E 014°35'612.4
2018-Jun-12 09:30N 55°28' E 014°45'612.3
2018-Jun-12 09:00N 55°31' E 014°55'612.2
2018-Jun-12 08:30N 55°33' E 015°05'612.5
2018-Jun-12 08:00N 55°36' E 015°15'612.6
2018-Jun-12 07:30N 55°38' E 015°25'612.2
2018-Jun-12 06:59N 55°40' E 015°36'27011.3
2018-Jun-11 07:05N 58°56' E 021°20'112.1
2018-Jun-11 07:00N 58°56' E 021°21'612.0
2018-Jun-11 06:30N 59°01' E 021°27'612.0
2018-Jun-11 06:00N 59°07' E 021°33'611.8
2018-Jun-11 05:30N 59°11' E 021°41'612.0
2018-Jun-11 05:00N 59°14' E 021°50'612.0
2018-Jun-11 04:30N 59°18' E 021°60'611.8
2018-Jun-11 04:00N 59°22' E 022°09'611.6
2018-Jun-11 03:30N 59°25' E 022°18'  

Dump ship's entire track history